sensor_id;sensor_type;location;lat;lon;timestamp;pressure;altitude;pressure_sealevel;temperature;humidity
68169;BME280;54981;50.206;15.978;2023-12-20T00:00:56;98477.69;;;5.41;100.00
68169;BME280;54981;50.206;15.978;2023-12-20T00:15:57;98462.09;;;5.13;100.00
68169;BME280;54981;50.206;15.978;2023-12-20T00:30:57;98454.78;;;4.98;100.00
68169;BME280;54981;50.206;15.978;2023-12-20T00:45:57;98458.91;;;4.83;100.00
68169;BME280;54981;50.206;15.978;2023-12-20T01:01:00;98449.59;;;4.74;100.00
68169;BME280;54981;50.206;15.978;2023-12-20T01:16:00;98447.31;;;4.65;100.00
68169;BME280;54981;50.206;15.978;2023-12-20T01:31:01;98421.78;;;4.65;100.00
68169;BME280;54981;50.206;15.978;2023-12-20T01:46:01;98428.41;;;4.54;100.00
68169;BME280;54981;50.206;15.978;2023-12-20T02:01:03;98382.91;;;4.48;100.00
68169;BME280;54981;50.206;15.978;2023-12-20T02:16:03;98352.31;;;4.44;100.00
68169;BME280;54981;50.206;15.978;2023-12-20T02:31:04;98334.97;;;4.39;100.00
68169;BME280;54981;50.206;15.978;2023-12-20T02:46:04;98335.59;;;4.45;100.00
68169;BME280;54981;50.206;15.978;2023-12-20T03:01:05;98322.09;;;4.53;100.00
68169;BME280;54981;50.206;15.978;2023-12-20T03:16:12;98326.50;;;4.75;100.00
68169;BME280;54981;50.206;15.978;2023-12-20T03:31:12;98322.81;;;4.57;100.00
68169;BME280;54981;50.206;15.978;2023-12-20T03:46:13;98323.56;;;4.60;100.00
68169;BME280;54981;50.206;15.978;2023-12-20T04:01:13;98311.81;;;4.69;100.00
68169;BME280;54981;50.206;15.978;2023-12-20T04:16:14;98320.47;;;4.51;100.00
68169;BME280;54981;50.206;15.978;2023-12-20T04:31:14;98327.75;;;4.44;100.00
68169;BME280;54981;50.206;15.978;2023-12-20T04:46:14;98317.16;;;4.45;100.00
68169;BME280;54981;50.206;15.978;2023-12-20T05:01:15;98311.22;;;4.40;100.00
68169;BME280;54981;50.206;15.978;2023-12-20T05:16:15;98324.63;;;4.34;100.00
68169;BME280;54981;50.206;15.978;2023-12-20T05:31:17;98324.31;;;4.42;100.00
68169;BME280;54981;50.206;15.978;2023-12-20T05:46:18;98343.31;;;4.50;100.00
68169;BME280;54981;50.206;15.978;2023-12-20T06:01:18;98332.22;;;4.42;100.00
68169;BME280;54981;50.206;15.978;2023-12-20T06:16:19;98336.63;;;4.41;100.00
68169;BME280;54981;50.206;15.978;2023-12-20T06:31:19;98339.28;;;4.41;100.00
68169;BME280;54981;50.206;15.978;2023-12-20T06:46:19;98333.19;;;4.39;100.00
68169;BME280;54981;50.206;15.978;2023-12-20T07:01:20;98344.66;;;4.38;100.00
68169;BME280;54981;50.206;15.978;2023-12-20T07:16:20;98363.59;;;4.26;100.00
68169;BME280;54981;50.206;15.978;2023-12-20T07:31:21;98401.25;;;4.28;100.00
68169;BME280;54981;50.206;15.978;2023-12-20T07:46:21;98410.09;;;4.27;100.00
68169;BME280;54981;50.206;15.978;2023-12-20T08:01:25;98419.91;;;4.23;100.00
68169;BME280;54981;50.206;15.978;2023-12-20T08:16:25;98424.56;;;4.17;100.00
68169;BME280;54981;50.206;15.978;2023-12-20T08:31:25;98421.09;;;4.15;100.00
68169;BME280;54981;50.206;15.978;2023-12-20T08:46:26;98449.16;;;4.16;100.00
68169;BME280;54981;50.206;15.978;2023-12-20T09:01:27;98436.78;;;4.18;100.00
68169;BME280;54981;50.206;15.978;2023-12-20T09:16:27;98437.97;;;4.56;100.00
68169;BME280;54981;50.206;15.978;2023-12-20T09:31:27;98443.09;;;4.37;100.00
68169;BME280;54981;50.206;15.978;2023-12-20T09:46:29;98436.59;;;4.69;100.00
68169;BME280;54981;50.206;15.978;2023-12-20T10:01:34;98426.09;;;4.68;100.00
68169;BME280;54981;50.206;15.978;2023-12-20T10:16:34;98409.56;;;4.64;100.00
68169;BME280;54981;50.206;15.978;2023-12-20T10:31:35;98399.22;;;4.80;100.00
68169;BME280;54981;50.206;15.978;2023-12-20T10:46:37;98415.19;;;4.77;100.00
68169;BME280;54981;50.206;15.978;2023-12-20T11:01:40;98403.69;;;5.00;100.00
68169;BME280;54981;50.206;15.978;2023-12-20T11:16:41;98402.97;;;4.97;100.00
68169;BME280;54981;50.206;15.978;2023-12-20T11:31:42;98388.69;;;5.23;100.00
68169;BME280;54981;50.206;15.978;2023-12-20T11:46:42;98361.03;;;5.52;100.00
68169;BME280;54981;50.206;15.978;2023-12-20T12:01:50;98352.16;;;5.34;100.00
68169;BME280;54981;50.206;15.978;2023-12-20T12:16:51;98345.06;;;5.55;100.00
68169;BME280;54981;50.206;15.978;2023-12-20T12:31:53;98312.38;;;5.58;100.00
68169;BME280;54981;50.206;15.978;2023-12-20T12:46:53;98295.41;;;5.63;100.00
68169;BME280;54981;50.206;15.978;2023-12-20T13:01:54;98289.34;;;5.61;100.00
68169;BME280;54981;50.206;15.978;2023-12-20T13:16:54;98298.41;;;5.74;100.00
68169;BME280;54981;50.206;15.978;2023-12-20T13:31:56;98282.19;;;5.44;100.00
68169;BME280;54981;50.206;15.978;2023-12-20T13:46:57;98281.41;;;5.61;100.00
68169;BME280;54981;50.206;15.978;2023-12-20T14:01:57;98286.53;;;5.64;100.00
68169;BME280;54981;50.206;15.978;2023-12-20T14:16:58;98295.53;;;5.60;100.00
68169;BME280;54981;50.206;15.978;2023-12-20T14:31:58;98285.22;;;5.35;100.00
68169;BME280;54981;50.206;15.978;2023-12-20T14:46:58;98288.38;;;5.43;100.00
68169;BME280;54981;50.206;15.978;2023-12-20T15:01:59;98281.28;;;5.25;100.00
68169;BME280;54981;50.206;15.978;2023-12-20T15:16:59;98267.34;;;5.21;100.00
68169;BME280;54981;50.206;15.978;2023-12-20T15:31:59;98253.91;;;5.27;100.00
68169;BME280;54981;50.206;15.978;2023-12-20T15:47:00;98240.47;;;5.13;100.00
68169;BME280;54981;50.206;15.978;2023-12-20T16:02:00;98234.13;;;5.17;100.00
68169;BME280;54981;50.206;15.978;2023-12-20T16:17:00;98230.56;;;5.18;100.00
68169;BME280;54981;50.206;15.978;2023-12-20T16:32:01;98244.00;;;5.12;100.00
68169;BME280;54981;50.206;15.978;2023-12-20T16:47:02;98247.56;;;5.11;100.00
68169;BME280;54981;50.206;15.978;2023-12-20T17:02:02;98262.47;;;5.12;100.00
68169;BME280;54981;50.206;15.978;2023-12-20T17:17:04;98266.97;;;5.10;100.00
68169;BME280;54981;50.206;15.978;2023-12-20T17:32:04;98262.63;;;5.09;100.00
68169;BME280;54981;50.206;15.978;2023-12-20T17:47:05;98264.66;;;5.02;100.00
68169;BME280;54981;50.206;15.978;2023-12-20T18:02:06;98262.84;;;4.84;100.00
68169;BME280;54981;50.206;15.978;2023-12-20T18:17:06;98268.63;;;4.92;100.00
68169;BME280;54981;50.206;15.978;2023-12-20T18:32:06;98256.75;;;5.02;100.00
68169;BME280;54981;50.206;15.978;2023-12-20T18:47:07;98270.59;;;5.07;100.00
68169;BME280;54981;50.206;15.978;2023-12-20T19:02:07;98273.44;;;5.03;100.00
68169;BME280;54981;50.206;15.978;2023-12-20T19:17:09;98266.75;;;5.15;100.00
68169;BME280;54981;50.206;15.978;2023-12-20T19:32:10;98272.78;;;5.18;100.00
68169;BME280;54981;50.206;15.978;2023-12-20T19:47:10;98256.00;;;5.19;100.00
68169;BME280;54981;50.206;15.978;2023-12-20T20:02:12;98249.16;;;4.95;100.00
68169;BME280;54981;50.206;15.978;2023-12-20T20:17:12;98244.66;;;4.76;100.00
68169;BME280;54981;50.206;15.978;2023-12-20T20:32:13;98237.88;;;4.70;100.00
68169;BME280;54981;50.206;15.978;2023-12-20T20:47:13;98239.53;;;4.53;100.00
68169;BME280;54981;50.206;15.978;2023-12-20T21:02:14;98233.38;;;4.32;100.00
68169;BME280;54981;50.206;15.978;2023-12-20T21:17:14;98232.91;;;4.42;100.00
68169;BME280;54981;50.206;15.978;2023-12-20T21:32:15;98218.97;;;4.40;100.00
68169;BME280;54981;50.206;15.978;2023-12-20T21:47:16;98215.59;;;4.37;100.00
68169;BME280;54981;50.206;15.978;2023-12-20T22:02:16;98194.38;;;4.40;100.00
68169;BME280;54981;50.206;15.978;2023-12-20T22:17:16;98179.53;;;4.37;100.00
68169;BME280;54981;50.206;15.978;2023-12-20T22:32:17;98148.72;;;4.39;100.00
68169;BME280;54981;50.206;15.978;2023-12-20T22:47:17;98138.13;;;4.41;100.00
68169;BME280;54981;50.206;15.978;2023-12-20T23:02:17;98109.53;;;4.32;100.00
68169;BME280;54981;50.206;15.978;2023-12-20T23:17:18;98095.94;;;4.41;100.00
68169;BME280;54981;50.206;15.978;2023-12-20T23:32:18;98069.41;;;4.45;100.00
68169;BME280;54981;50.206;15.978;2023-12-20T23:47:19;98046.72;;;4.41;100.00
